Time;durP1;ratioP1;P1;durP2;ratioP2;P2;SDS_P1;SDS_P2;PMS_P1;PMS_P2;Temp;Humidity;BMP_temperature;BMP_pressure;BME280_temperature;BME280_humidity;BME280_pressure;Samples;Min_cycle;Max_cycle;Signal;HPM_P1;HPM_P2
2022/03/01 00:00:59;;;;;;;13.50;8.32;;;4.20;99.90;;;;;;5092186;28;20188;-48
2022/03/01 00:03:25;;;;;;;16.75;10.07;;;4.20;99.90;;;;;;5092149;28;20196;-48
2022/03/01 00:05:50;;;;;;;15.15;9.30;;;4.20;99.90;;;;;;5092381;28;20207;-48
2022/03/01 00:08:16;;;;;;;13.48;8.98;;;4.20;99.90;;;;;;5092217;28;20201;-48
2022/03/01 00:10:41;;;;;;;14.90;9.45;;;4.20;99.90;;;;;;5092167;28;20173;-48
2022/03/01 00:13:08;;;;;;;14.93;9.95;;;4.10;99.90;;;;;;5092598;28;20205;-48
2022/03/01 00:15:33;;;;;;;16.88;10.25;;;4.00;99.90;;;;;;5092864;28;20177;-48
2022/03/01 00:17:59;;;;;;;18.38;10.45;;;3.90;99.90;;;;;;5092058;28;20533;-48
2022/03/01 00:20:24;;;;;;;19.45;10.98;;;3.90;99.90;;;;;;5091200;28;20173;-49
2022/03/01 00:22:50;;;;;;;14.48;9.65;;;3.90;99.90;;;;;;5092091;28;20185;-48
2022/03/01 00:25:15;;;;;;;19.13;10.25;;;3.90;99.90;;;;;;5092214;28;20212;-48
2022/03/01 00:27:41;;;;;;;15.32;10.13;;;3.90;99.90;;;;;;5092340;28;20166;-48
2022/03/01 00:30:07;;;;;;;18.67;11.55;;;3.90;99.90;;;;;;5092536;28;20172;-48
2022/03/01 00:32:33;;;;;;;18.35;10.65;;;3.80;99.90;;;;;;5091970;28;20162;-48
2022/03/01 00:34:58;;;;;;;17.33;10.45;;;3.80;99.90;;;;;;5091975;28;20184;-48
2022/03/01 00:37:24;;;;;;;18.73;10.35;;;3.90;99.90;;;;;;5091960;28;20176;-48
2022/03/01 00:39:49;;;;;;;16.40;10.18;;;3.80;99.90;;;;;;5091920;28;20622;-48
2022/03/01 00:42:15;;;;;;;17.92;10.75;;;3.80;99.90;;;;;;5073845;28;20173;-48
2022/03/01 00:44:40;;;;;;;17.50;11.25;;;3.80;99.90;;;;;;5092108;28;20209;-48
2022/03/01 00:47:06;;;;;;;15.70;10.50;;;3.70;99.90;;;;;;5091882;28;20238;-49
2022/03/01 00:49:32;;;;;;;16.73;10.13;;;3.80;99.90;;;;;;5073758;28;20661;-47
2022/03/01 00:51:57;;;;;;;16.50;9.95;;;3.70;99.90;;;;;;5092066;28;20176;-48
2022/03/01 00:54:23;;;;;;;14.98;10.05;;;3.70;99.90;;;;;;5091839;28;20204;-48
2022/03/01 00:56:48;;;;;;;17.85;10.55;;;3.70;99.90;;;;;;5091776;28;20187;-48
2022/03/01 00:59:14;;;;;;;15.50;9.40;;;3.70;99.90;;;;;;5091746;28;20630;-48
2022/03/01 01:01:39;;;;;;;19.30;10.55;;;3.70;99.90;;;;;;5092035;28;20173;-48
2022/03/01 01:04:05;;;;;;;13.25;9.57;;;3.70;99.90;;;;;;5091607;28;20204;-49
2022/03/01 01:06:30;;;;;;;16.25;10.02;;;3.70;99.90;;;;;;5091674;28;20166;-48
2022/03/01 01:08:56;;;;;;;15.00;10.07;;;3.70;99.90;;;;;;5091796;28;20657;-48
2022/03/01 01:11:22;;;;;;;14.27;9.57;;;3.70;99.90;;;;;;5091937;28;20166;-48
2022/03/01 01:13:47;;;;;;;14.40;9.27;;;3.60;99.90;;;;;;5091701;28;20329;-50
2022/03/01 01:16:13;;;;;;;18.27;10.68;;;3.60;99.90;;;;;;5091660;28;20166;-48
2022/03/01 01:18:43;;;;;;;14.35;8.93;;;3.50;99.90;;;;;;5091848;28;20169;-48
2022/03/01 01:21:12;;;;;;;13.07;8.80;;;3.50;99.90;;;;;;5092115;28;20180;-48
2022/03/01 01:23:38;;;;;;;16.25;10.38;;;3.50;99.90;;;;;;5091786;28;20204;-48
2022/03/01 01:26:04;;;;;;;14.95;9.90;;;3.50;99.90;;;;;;5091566;28;20157;-49
2022/03/01 01:28:30;;;;;;;18.48;10.07;;;3.50;99.90;;;;;;5091583;28;20823;-48
2022/03/01 01:30:56;;;;;;;16.48;9.38;;;3.50;99.90;;;;;;5091506;28;20177;-48
2022/03/01 01:33:21;;;;;;;16.33;9.93;;;3.40;99.90;;;;;;5094763;28;20223;-48
2022/03/01 01:35:47;;;;;;;20.88;10.05;;;3.40;99.90;;;;;;5095085;28;20189;-49
2022/03/01 01:38:12;;;;;;;18.45;11.07;;;3.40;99.90;;;;;;5095019;28;20583;-48
2022/03/01 01:40:38;;;;;;;17.30;9.98;;;3.60;99.90;;;;;;5095320;28;20168;-49
2022/03/01 01:43:05;;;;;;;18.35;10.23;;;3.50;99.90;;;;;;5095181;28;20157;-49
2022/03/01 01:45:31;;;;;;;18.33;10.57;;;3.40;99.90;;;;;;5094728;28;20685;-48
2022/03/01 01:47:58;;;;;;;21.65;10.43;;;3.40;99.90;;;;;;5095096;28;20180;-47
2022/03/01 01:50:24;;;;;;;18.92;10.52;;;3.30;99.90;;;;;;5094826;28;20274;-47
2022/03/01 01:52:51;;;;;;;17.73;10.50;;;3.30;99.90;;;;;;5094961;28;20530;-47
2022/03/01 01:55:19;;;;;;;19.25;11.20;;;3.30;99.90;;;;;;5094669;28;20161;-46
2022/03/01 01:57:44;;;;;;;21.55;11.02;;;3.30;99.90;;;;;;5094608;28;20657;-47
2022/03/01 02:00:11;;;;;;;16.38;10.23;;;3.40;99.90;;;;;;5094921;28;20169;-47
2022/03/01 02:02:37;;;;;;;21.60;12.27;;;3.40;99.90;;;;;;5094851;28;20373;-47
2022/03/01 02:05:03;;;;;;;18.77;10.88;;;3.40;99.90;;;;;;5094440;28;20312;-47
2022/03/01 02:07:28;;;;;;;19.98;11.68;;;3.50;99.90;;;;;;5094392;28;20176;-47
2022/03/01 02:09:54;;;;;;;19.52;10.77;;;3.50;99.90;;;;;;5076292;28;20166;-47
2022/03/01 02:12:20;;;;;;;20.23;11.50;;;3.50;99.90;;;;;;5094393;28;20169;-47
2022/03/01 02:14:46;;;;;;;18.27;10.65;;;3.50;99.90;;;;;;5094222;28;20166;-47
2022/03/01 02:17:12;;;;;;;17.63;10.32;;;3.50;99.90;;;;;;5094389;28;20270;-46
2022/03/01 02:19:38;;;;;;;17.77;10.50;;;3.50;99.90;;;;;;5094807;28;20177;-47
2022/03/01 02:22:06;;;;;;;21.17;10.77;;;3.50;99.90;;;;;;5094419;28;20176;-47
2022/03/01 02:24:31;;;;;;;15.07;9.35;;;3.40;99.90;;;;;;5094307;28;20201;-47
2022/03/01 02:26:59;;;;;;;16.10;10.25;;;3.40;99.90;;;;;;5094059;28;20165;-47
2022/03/01 02:29:26;;;;;;;16.45;9.88;;;3.40;99.90;;;;;;5094076;28;20695;-47
2022/03/01 02:31:52;;;;;;;17.08;9.85;;;3.40;99.90;;;;;;5094030;28;20165;-47
2022/03/01 02:34:18;;;;;;;15.93;9.50;;;3.40;99.90;;;;;;5093972;28;20173;-47
2022/03/01 02:36:45;;;;;;;14.35;8.95;;;3.40;99.90;;;;;;5093922;28;20176;-47
2022/03/01 02:39:10;;;;;;;13.68;8.15;;;3.40;99.90;;;;;;5094382;28;20162;-47
2022/03/01 02:41:40;;;;;;;13.20;8.95;;;3.40;99.90;;;;;;5093782;28;20641;-47
2022/03/01 02:44:06;;;;;;;12.98;7.63;;;3.40;99.90;;;;;;5092796;28;20317;-47
2022/03/01 02:46:33;;;;;;;15.70;8.07;;;3.40;99.90;;;;;;5093548;28;20217;-46
2022/03/01 02:48:59;;;;;;;13.55;8.13;;;3.40;99.90;;;;;;5093696;28;20173;-46
2022/03/01 02:51:25;;;;;;;12.45;7.40;;;3.30;99.90;;;;;;5093850;28;20520;-48
2022/03/01 02:53:50;;;;;;;13.85;8.50;;;3.30;99.90;;;;;;5075417;28;20532;-47
2022/03/01 02:56:16;;;;;;;15.57;8.10;;;3.40;99.90;;;;;;5093524;28;20253;-46
2022/03/01 02:58:41;;;;;;;12.38;7.90;;;3.30;99.90;;;;;;5093437;28;20264;-46
2022/03/01 03:01:08;;;;;;;13.95;7.68;;;3.30;99.90;;;;;;5093740;28;20257;-47
2022/03/01 03:03:34;;;;;;;16.00;9.10;;;3.30;99.90;;;;;;5093291;28;20211;-46
2022/03/01 03:06:00;;;;;;;14.77;8.57;;;3.30;99.90;;;;;;5093320;28;20598;-47
2022/03/01 03:08:25;;;;;;;15.55;8.63;;;3.30;99.90;;;;;;5093309;28;20173;-46
2022/03/01 03:10:51;;;;;;;17.50;8.38;;;3.30;99.90;;;;;;5093223;28;20177;-46
2022/03/01 03:13:17;;;;;;;14.55;8.48;;;3.20;99.90;;;;;;5093168;28;20162;-47
2022/03/01 03:15:42;;;;;;;19.63;8.02;;;3.30;99.90;;;;;;5093186;28;20165;-46
2022/03/01 03:18:08;;;;;;;15.52;8.57;;;3.30;99.90;;;;;;5093464;28;20165;-45
2022/03/01 03:20:34;;;;;;;13.73;9.20;;;3.30;99.90;;;;;;5093030;28;20169;-46
2022/03/01 03:22:59;;;;;;;12.73;8.32;;;3.20;99.90;;;;;;5093248;28;20174;-46
2022/03/01 03:25:25;;;;;;;13.63;8.75;;;3.30;99.90;;;;;;5092965;28;20204;-47
2022/03/01 03:27:51;;;;;;;17.40;8.80;;;3.30;99.90;;;;;;5092861;28;20165;-48
2022/03/01 03:30:17;;;;;;;15.38;9.13;;;3.20;99.90;;;;;;5093108;28;20173;-46
2022/03/01 03:32:42;;;;;;;13.02;8.07;;;3.30;99.90;;;;;;5092836;28;20192;-47
2022/03/01 03:35:08;;;;;;;13.57;8.52;;;3.30;99.90;;;;;;5093151;28;20173;-46
2022/03/01 03:37:34;;;;;;;15.23;7.70;;;3.30;99.90;;;;;;5092772;28;20165;-47
2022/03/01 03:39:59;;;;;;;12.52;8.73;;;3.30;99.90;;;;;;5092776;28;20664;-46
2022/03/01 03:42:25;;;;;;;13.80;8.80;;;3.20;99.90;;;;;;5092662;28;20169;-46
2022/03/01 03:44:51;;;;;;;13.27;8.35;;;3.20;99.90;;;;;;5092611;28;20208;-47
2022/03/01 03:47:16;;;;;;;12.23;8.18;;;3.20;99.90;;;;;;5092606;28;20644;-47
2022/03/01 03:49:42;;;;;;;14.75;8.63;;;3.10;99.90;;;;;;5092533;28;20173;-47
2022/03/01 03:52:08;;;;;;;12.40;7.78;;;3.10;99.90;;;;;;5093089;28;20176;-46
2022/03/01 03:54:34;;;;;;;12.40;7.30;;;3.10;99.90;;;;;;5092261;28;20161;-47
2022/03/01 03:56:59;;;;;;;11.60;7.32;;;3.10;99.90;;;;;;5092428;28;20527;-47
2022/03/01 03:59:25;;;;;;;11.77;7.30;;;3.10;99.90;;;;;;5092372;28;20638;-47
2022/03/01 04:01:51;;;;;;;13.88;7.55;;;3.10;99.90;;;;;;5092241;28;20173;-46
2022/03/01 04:04:17;;;;;;;11.68;7.38;;;3.00;99.90;;;;;;5092281;28;20258;-46
2022/03/01 04:06:44;;;;;;;12.52;8.20;;;3.00;99.90;;;;;;5092299;28;20579;-46
2022/03/01 04:09:09;;;;;;;12.10;7.75;;;2.90;99.90;;;;;;5092519;28;20290;-47
2022/03/01 04:11:35;;;;;;;12.90;8.00;;;3.00;99.90;;;;;;5092195;28;20244;-47
2022/03/01 04:14:02;;;;;;;14.77;8.57;;;2.90;99.90;;;;;;5092196;28;20223;-47
2022/03/01 04:16:27;;;;;;;15.77;8.68;;;2.90;99.90;;;;;;5092142;28;20654;-46
2022/03/01 04:18:54;;;;;;;18.33;9.93;;;2.90;99.90;;;;;;5092370;28;20208;-47
2022/03/01 04:21:20;;;;;;;23.35;10.65;;;2.80;99.90;;;;;;5092096;28;20172;-47
2022/03/01 04:23:46;;;;;;;22.63;10.50;;;2.80;99.90;;;;;;5092274;28;20197;-46
2022/03/01 04:26:11;;;;;;;18.80;10.40;;;2.80;99.90;;;;;;5092109;28;20169;-46
2022/03/01 04:28:37;;;;;;;16.85;9.48;;;2.80;99.90;;;;;;5091953;28;20172;-47
2022/03/01 04:31:02;;;;;;;18.48;10.55;;;2.80;99.90;;;;;;5071994;28;20168;-47
2022/03/01 04:33:28;;;;;;;19.58;10.85;;;2.80;99.90;;;;;;5071808;28;20526;-47
2022/03/01 04:35:54;;;;;;;15.55;9.15;;;2.70;99.90;;;;;;5071868;28;20166;-46
2022/03/01 04:38:20;;;;;;;18.20;8.82;;;2.70;99.90;;;;;;5072037;28;20523;-47
2022/03/01 04:40:46;;;;;;;13.10;8.85;;;2.80;99.90;;;;;;5072003;28;20177;-46
2022/03/01 04:43:12;;;;;;;16.42;9.38;;;2.70;99.90;;;;;;5071708;28;20269;-46
2022/03/01 04:45:38;;;;;;;15.80;8.27;;;2.70;99.90;;;;;;5072083;28;20220;-46
2022/03/01 04:48:04;;;;;;;14.30;8.55;;;2.70;99.90;;;;;;5071715;28;20623;-46
2022/03/01 04:50:30;;;;;;;12.48;8.25;;;2.70;99.90;;;;;;5071641;28;20166;-46
2022/03/01 04:52:56;;;;;;;15.02;9.02;;;2.70;99.90;;;;;;5071874;28;20166;-46
2022/03/01 04:55:22;;;;;;;17.02;9.35;;;2.70;99.90;;;;;;5071681;28;20526;-46
2022/03/01 04:57:48;;;;;;;15.45;8.93;;;2.70;99.90;;;;;;5071559;28;20170;-46
2022/03/01 05:00:14;;;;;;;14.57;9.13;;;2.70;99.90;;;;;;5071645;28;20662;-46
2022/03/01 05:02:42;;;;;;;18.40;9.93;;;2.60;99.90;;;;;;5071829;28;20654;-46
2022/03/01 05:05:10;;;;;;;18.65;10.02;;;2.60;99.90;;;;;;5071754;28;20237;-47
2022/03/01 05:07:40;;;;;;;20.80;10.85;;;2.60;99.90;;;;;;5073066;28;20574;-46
2022/03/01 05:10:08;;;;;;;17.35;10.70;;;2.60;99.90;;;;;;5075223;28;20170;-46
2022/03/01 05:12:41;;;;;;;19.92;10.25;;;2.60;99.90;;;;;;5075208;28;20573;-46
2022/03/01 05:15:07;;;;;;;18.50;9.98;;;2.70;99.90;;;;;;5075827;28;20178;-46
2022/03/01 05:17:34;;;;;;;17.65;9.38;;;2.60;99.90;;;;;;5075106;28;20181;-47
2022/03/01 05:20:01;;;;;;;20.02;10.43;;;2.60;99.90;;;;;;5074993;28;20215;-46
2022/03/01 05:22:26;;;;;;;17.90;9.75;;;2.60;99.90;;;;;;5074966;28;20661;-46
2022/03/01 05:24:52;;;;;;;15.88;9.23;;;2.60;99.90;;;;;;5075154;28;20210;-46
2022/03/01 05:27:17;;;;;;;12.85;8.30;;;2.70;99.90;;;;;;5075004;28;20671;-46
2022/03/01 05:29:43;;;;;;;16.70;9.15;;;2.70;99.90;;;;;;5074856;28;20170;-47
2022/03/01 05:32:09;;;;;;;19.73;10.18;;;2.70;99.90;;;;;;5075139;28;20169;-46
2022/03/01 05:34:34;;;;;;;15.82;8.88;;;2.70;99.90;;;;;;5074780;28;20631;-46
2022/03/01 05:37:00;;;;;;;16.88;8.05;;;2.60;99.90;;;;;;5075001;28;20635;-46
2022/03/01 05:39:25;;;;;;;13.68;7.95;;;2.60;99.90;;;;;;5074751;28;20177;-47
2022/03/01 05:41:51;;;;;;;15.13;8.43;;;2.60;99.90;;;;;;5074664;28;20166;-46
2022/03/01 05:44:16;;;;;;;15.43;9.02;;;2.60;99.90;;;;;;5074536;28;20209;-46
2022/03/01 05:46:42;;;;;;;14.30;8.00;;;2.60;99.90;;;;;;5074112;28;20253;-46
2022/03/01 05:49:07;;;;;;;13.82;8.27;;;2.60;99.90;;;;;;5074847;28;20166;-48
2022/03/01 05:51:33;;;;;;;12.98;7.85;;;2.70;99.90;;;;;;5074659;28;20162;-47
2022/03/01 05:53:58;;;;;;;14.70;9.25;;;2.60;99.90;;;;;;5074668;28;20174;-47
2022/03/01 05:56:24;;;;;;;13.73;8.35;;;2.60;99.90;;;;;;5074415;28;20163;-47
2022/03/01 05:58:50;;;;;;;12.75;7.85;;;2.70;99.90;;;;;;5074308;28;20647;-47
2022/03/01 06:01:15;;;;;;;11.52;7.93;;;2.70;99.90;;;;;;5074232;28;20173;-48
2022/03/01 06:03:41;;;;;;;14.50;10.95;;;2.70;99.90;;;;;;5074436;28;20666;-47
2022/03/01 06:06:06;;;;;;;9.65;7.07;;;2.90;99.90;;;;;;5074769;28;20174;-46
2022/03/01 06:08:32;;;;;;;10.10;7.57;;;2.80;99.90;;;;;;5074054;28;20623;-46
2022/03/01 06:10:57;;;;;;;15.88;9.02;;;2.80;99.90;;;;;;5073971;28;20174;-46
2022/03/01 06:13:23;;;;;;;12.52;7.75;;;2.90;99.90;;;;;;5074426;28;20241;-46
2022/03/01 06:15:49;;;;;;;15.35;9.02;;;2.90;99.90;;;;;;5074176;28;20654;-46
2022/03/01 06:18:15;;;;;;;14.45;7.35;;;2.90;99.90;;;;;;5074251;28;20292;-46
2022/03/01 06:20:41;;;;;;;11.50;7.60;;;2.80;99.90;;;;;;5074516;28;20177;-46
2022/03/01 06:23:07;;;;;;;10.98;7.40;;;2.90;99.90;;;;;;5074484;28;20256;-47
2022/03/01 06:25:33;;;;;;;16.25;8.07;;;2.90;99.90;;;;;;5074151;28;20301;-47
2022/03/01 06:27:58;;;;;;;17.52;7.53;;;2.90;99.90;;;;;;5074090;28;20196;-47
2022/03/01 06:30:24;;;;;;;10.80;7.68;;;2.90;99.90;;;;;;5073927;28;20535;-47
2022/03/01 06:32:50;;;;;;;17.80;8.43;;;3.00;99.90;;;;;;5073699;28;20193;-47
2022/03/01 06:35:16;;;;;;;10.38;7.28;;;2.90;99.90;;;;;;5073671;28;20661;-47
2022/03/01 06:37:41;;;;;;;13.02;8.07;;;3.00;99.90;;;;;;5073745;28;20257;-46
2022/03/01 06:40:08;;;;;;;11.98;7.38;;;3.00;99.90;;;;;;5073925;28;20512;-47
2022/03/01 06:42:34;;;;;;;15.38;8.38;;;3.00;99.90;;;;;;5073303;28;20166;-47
2022/03/01 06:45:00;;;;;;;13.38;7.45;;;3.10;99.90;;;;;;5073217;28;20274;-47
2022/03/01 06:47:25;;;;;;;12.77;6.97;;;3.20;99.90;;;;;;5073394;28;20252;-47
2022/03/01 06:49:51;;;;;;;20.77;7.65;;;3.20;99.90;;;;;;5055496;28;20177;-48
2022/03/01 06:52:17;;;;;;;16.27;7.80;;;3.20;99.90;;;;;;5073242;28;20170;-47
2022/03/01 06:54:42;;;;;;;12.98;7.63;;;3.20;99.90;;;;;;5073425;28;20243;-46
2022/03/01 06:57:08;;;;;;;11.13;6.78;;;3.20;99.90;;;;;;5073547;28;20288;-48
2022/03/01 06:59:34;;;;;;;13.52;7.85;;;3.20;99.90;;;;;;5073481;28;20195;-46
2022/03/01 07:02:00;;;;;;;11.90;8.07;;;3.30;99.90;;;;;;5073134;28;20170;-48
2022/03/01 07:04:26;;;;;;;11.95;7.07;;;3.30;99.90;;;;;;5073236;28;20213;-47
2022/03/01 07:06:51;;;;;;;15.63;8.35;;;3.30;99.90;;;;;;5073308;28;20180;-46
2022/03/01 07:09:17;;;;;;;18.70;8.50;;;3.30;99.90;;;;;;5072959;28;20257;-46
2022/03/01 07:11:42;;;;;;;13.85;7.95;;;3.30;99.90;;;;;;5072980;28;20263;-47
2022/03/01 07:14:08;;;;;;;15.32;7.88;;;3.20;99.90;;;;;;5073192;28;20170;-47
2022/03/01 07:16:33;;;;;;;16.50;7.85;;;3.20;99.90;;;;;;5072922;28;20670;-48
2022/03/01 07:19:00;;;;;;;12.48;7.38;;;3.30;99.90;;;;;;5072758;28;20268;-46
2022/03/01 07:21:26;;;;;;;14.10;8.82;;;3.40;99.90;;;;;;5072982;28;20166;-46
2022/03/01 07:23:52;;;;;;;30.85;10.50;;;3.40;99.90;;;;;;5072572;28;20201;-46
2022/03/01 07:26:17;;;;;;;17.83;8.48;;;3.40;99.90;;;;;;5072705;28;20166;-47
2022/03/01 07:28:43;;;;;;;20.55;9.32;;;3.40;99.90;;;;;;5072702;28;20169;-45
2022/03/01 07:31:09;;;;;;;16.33;7.60;;;3.50;99.90;;;;;;5072438;28;20185;-45
2022/03/01 07:33:34;;;;;;;24.02;9.20;;;3.50;99.90;;;;;;5072513;28;20170;-47
2022/03/01 07:36:00;;;;;;;14.15;7.50;;;3.50;99.90;;;;;;5072447;28;20179;-47
2022/03/01 07:38:26;;;;;;;23.90;8.57;;;3.40;99.90;;;;;;5072680;28;20678;-47
2022/03/01 07:40:51;;;;;;;25.63;9.93;;;3.60;99.90;;;;;;5072515;28;20169;-46
2022/03/01 07:43:17;;;;;;;22.80;8.77;;;3.40;99.90;;;;;;5072607;28;20620;-46
2022/03/01 07:45:42;;;;;;;12.93;7.22;;;3.50;99.90;;;;;;5072123;28;20308;-47
2022/03/01 07:48:10;;;;;;;17.63;8.55;;;3.50;99.90;;;;;;5072824;28;20261;-47
2022/03/01 07:50:36;;;;;;;25.17;9.32;;;3.60;99.90;;;;;;5072623;28;20181;-46
2022/03/01 07:53:02;;;;;;;23.33;9.02;;;3.60;99.90;;;;;;5054118;28;20166;-46
2022/03/01 07:55:29;;;;;;;22.40;8.55;;;3.60;99.90;;;;;;5071999;28;20224;-45
2022/03/01 07:57:55;;;;;;;42.25;11.13;;;3.70;99.90;;;;;;5072405;28;20174;-47
2022/03/01 08:00:21;;;;;;;32.75;9.82;;;3.70;99.90;;;;;;5072042;28;20177;-47
2022/03/01 08:02:47;;;;;;;16.17;8.45;;;3.80;99.90;;;;;;5072168;28;20272;-46
2022/03/01 08:05:13;;;;;;;21.88;8.38;;;3.70;99.90;;;;;;5071815;28;20206;-46
2022/03/01 08:07:38;;;;;;;42.13;10.93;;;3.70;99.90;;;;;;5072098;28;20170;-47
2022/03/01 08:10:04;;;;;;;33.25;11.50;;;3.80;99.90;;;;;;5072007;28;20166;-48
2022/03/01 08:12:30;;;;;;;25.45;9.50;;;3.80;99.90;;;;;;5072113;28;20169;-46
2022/03/01 08:14:55;;;;;;;20.85;8.43;;;3.90;99.90;;;;;;5071839;28;20197;-47
2022/03/01 08:17:21;;;;;;;32.10;11.90;;;4.10;99.90;;;;;;5071827;28;20166;-47
2022/03/01 08:19:48;;;;;;;18.50;8.38;;;4.20;99.90;;;;;;5071809;28;20166;-46
2022/03/01 08:22:13;;;;;;;23.30;10.93;;;4.50;99.90;;;;;;5071834;28;20227;-47
2022/03/01 08:24:39;;;;;;;18.40;8.60;;;4.60;99.90;;;;;;5072163;28;20547;-47
2022/03/01 08:27:05;;;;;;;21.58;9.65;;;4.80;99.90;;;;;;5072074;28;20168;-47
2022/03/01 08:29:31;;;;;;;22.63;9.32;;;4.90;99.90;;;;;;5071758;28;20188;-47
2022/03/01 08:31:57;;;;;;;25.50;9.30;;;5.00;99.90;;;;;;5071948;28;20165;-47
2022/03/01 08:34:23;;;;;;;22.80;9.85;;;5.20;99.90;;;;;;5071779;28;20196;-47
2022/03/01 08:36:49;;;;;;;28.02;10.02;;;5.30;99.90;;;;;;5072015;28;20545;-47
2022/03/01 08:39:14;;;;;;;25.75;10.82;;;5.20;99.90;;;;;;5071946;28;20170;-47
2022/03/01 08:41:40;;;;;;;15.57;9.50;;;5.40;99.90;;;;;;5072434;28;20666;-47
2022/03/01 08:44:06;;;;;;;16.05;8.73;;;5.30;99.90;;;;;;5075627;28;20213;-47
2022/03/01 08:46:31;;;;;;;19.20;9.50;;;5.30;99.90;;;;;;5075427;28;20584;-48
2022/03/01 08:48:57;;;;;;;22.67;8.88;;;5.30;99.90;;;;;;5075669;28;20656;-47
2022/03/01 08:51:25;;;;;;;21.25;9.10;;;5.40;99.90;;;;;;5075907;28;20322;-47
2022/03/01 08:53:52;;;;;;;14.75;8.77;;;5.40;99.90;;;;;;5075658;28;20170;-47
2022/03/01 08:56:17;;;;;;;12.75;8.15;;;5.60;99.90;;;;;;5075733;28;20170;-47
2022/03/01 08:58:43;;;;;;;35.50;11.48;;;5.60;99.90;;;;;;5075406;28;20184;-47
2022/03/01 09:01:09;;;;;;;20.05;8.50;;;5.70;99.90;;;;;;5075592;28;20611;-46
2022/03/01 09:03:36;;;;;;;16.88;8.55;;;5.70;99.90;;;;;;5075223;28;20223;-47
2022/03/01 09:06:04;;;;;;;17.83;9.25;;;5.70;99.90;;;;;;5075157;28;20211;-47
2022/03/01 09:08:31;;;;;;;17.73;9.18;;;5.70;99.90;;;;;;5057993;28;20169;-47
2022/03/01 09:10:57;;;;;;;15.95;8.23;;;5.60;99.90;;;;;;5075178;28;20212;-46
2022/03/01 09:13:22;;;;;;;21.52;9.55;;;5.70;99.90;;;;;;5075029;28;20165;-47
2022/03/01 09:15:47;;;;;;;29.02;10.85;;;5.80;99.90;;;;;;5075056;28;20159;-47
2022/03/01 09:18:13;;;;;;;28.10;10.07;;;5.90;99.90;;;;;;5075001;28;20627;-47
2022/03/01 09:20:38;;;;;;;37.45;9.73;;;5.90;99.90;;;;;;5075295;28;20166;-47
2022/03/01 09:23:04;;;;;;;20.67;9.70;;;5.90;99.90;;;;;;5075053;28;20173;-47
2022/03/01 09:25:30;;;;;;;25.48;9.13;;;5.90;99.90;;;;;;5056917;28;20325;-47
2022/03/01 09:27:55;;;;;;;44.25;11.85;;;5.90;99.90;;;;;;5074858;28;20219;-47
2022/03/01 09:30:21;;;;;;;23.10;9.20;;;5.80;99.90;;;;;;5074759;28;20169;-47
2022/03/01 09:32:48;;;;;;;24.15;10.73;;;5.80;99.90;;;;;;5074975;28;20166;-47
2022/03/01 09:35:14;;;;;;;21.67;8.70;;;5.90;99.90;;;;;;5074783;28;20162;-46
2022/03/01 09:37:41;;;;;;;18.50;9.88;;;5.90;99.90;;;;;;5074958;28;20220;-47
2022/03/01 09:40:08;;;;;;;17.23;8.27;;;5.80;99.90;;;;;;5075227;28;20174;-47
2022/03/01 09:42:34;;;;;;;18.33;9.18;;;5.70;99.90;;;;;;5074991;28;20524;-47
2022/03/01 09:45:00;;;;;;;16.90;9.07;;;5.70;99.90;;;;;;5074120;28;20206;-47
2022/03/01 09:47:26;;;;;;;21.42;8.20;;;6.00;99.90;;;;;;5073440;28;20197;-47
2022/03/01 09:49:52;;;;;;;15.43;8.32;;;6.30;99.90;;;;;;5073482;28;20213;-48
2022/03/01 09:52:19;;;;;;;15.98;9.00;;;6.60;99.90;;;;;;5073359;28;20630;-47
2022/03/01 09:54:47;;;;;;;15.70;8.48;;;6.90;99.90;;;;;;5073243;28;20193;-47
2022/03/01 09:57:14;;;;;;;18.45;9.25;;;7.20;99.90;;;;;;5073316;28;20165;-47
2022/03/01 09:59:41;;;;;;;11.65;8.25;;;7.40;99.90;;;;;;5073638;28;20215;-47
2022/03/01 10:02:07;;;;;;;12.80;8.52;;;7.50;99.90;;;;;;5073670;28;20165;-47
2022/03/01 10:04:37;;;;;;;12.90;8.35;;;7.50;99.90;;;;;;5073106;28;20232;-47
2022/03/01 10:07:03;;;;;;;12.45;8.23;;;7.60;99.90;;;;;;5073159;28;20282;-47
2022/03/01 10:09:28;;;;;;;13.43;8.70;;;7.80;99.90;;;;;;5073379;28;20194;-47
2022/03/01 10:11:54;;;;;;;14.93;8.93;;;8.30;99.90;;;;;;5073148;28;20634;-47
2022/03/01 10:14:31;;;;;;;15.02;9.18;;;8.40;99.90;;;;;;5073055;28;20173;-47
2022/03/01 10:16:57;;;;;;;12.48;8.45;;;8.30;99.90;;;;;;5073093;28;20161;-47
2022/03/01 10:19:23;;;;;;;16.38;8.40;;;8.10;99.90;;;;;;5072812;28;20174;-47
2022/03/01 10:21:57;;;;;;;11.05;8.85;;;8.10;99.90;;;;;;5073140;28;20174;-47
2022/03/01 10:24:22;;;;;;;16.98;8.82;;;8.10;99.90;;;;;;5054824;28;20246;-47
2022/03/01 10:26:49;;;;;;;14.70;9.38;;;8.00;99.90;;;;;;5072770;28;20261;-47
2022/03/01 10:29:16;;;;;;;16.00;8.63;;;8.10;99.90;;;;;;5073347;28;20299;-47
2022/03/01 10:31:46;;;;;;;20.10;8.63;;;8.10;99.90;;;;;;5072692;28;20170;-47
2022/03/01 10:34:13;;;;;;;16.58;9.45;;;8.10;99.90;;;;;;5072894;28;20181;-47
2022/03/01 10:36:47;;;;;;;13.02;8.85;;;8.10;99.90;;;;;;5072954;28;20672;-47
2022/03/01 10:39:19;;;;;;;21.42;9.23;;;8.00;99.90;;;;;;5072593;28;20715;-47
2022/03/01 10:41:50;;;;;;;16.27;9.00;;;8.00;99.90;;;;;;5072904;28;20170;-47
2022/03/01 10:44:18;;;;;;;17.33;8.85;;;8.00;99.90;;;;;;5072775;28;20209;-47
2022/03/01 10:46:51;;;;;;;22.55;10.48;;;8.10;99.90;;;;;;5035855;28;1072789;-47
2022/03/01 10:49:22;;;;;;;15.57;8.90;;;8.10;99.90;;;;;;5073419;28;20199;-46
2022/03/01 10:52:02;;;;;;;22.27;10.05;;;8.20;99.90;;;;;;5073579;28;20532;-47
2022/03/01 10:54:42;;;;;;;14.93;9.07;;;8.30;99.90;;;;;;5073623;28;20173;-47
2022/03/01 10:57:21;;;;;;;14.98;9.38;;;8.30;99.90;;;;;;5073516;28;20670;-47
2022/03/01 10:59:48;;;;;;;21.33;9.98;;;8.30;99.90;;;;;;5055312;28;20178;-47
2022/03/01 11:02:16;;;;;;;18.02;9.23;;;8.40;99.90;;;;;;5072991;28;20162;-48
2022/03/01 11:04:42;;;;;;;19.10;9.73;;;8.40;99.90;;;;;;5072455;28;20210;-47
2022/03/01 11:07:09;;;;;;;13.30;8.60;;;8.50;99.90;;;;;;5073195;28;20166;-48
2022/03/01 11:09:35;;;;;;;27.15;10.82;;;8.60;99.90;;;;;;5072887;28;20162;-48
2022/03/01 11:12:03;;;;;;;17.17;11.70;;;8.60;99.90;;;;;;5072862;28;20181;-48
2022/03/01 11:14:30;;;;;;;26.00;9.52;;;8.60;99.90;;;;;;5072952;28;20523;-48
2022/03/01 11:17:24;;;;;;;17.33;9.60;;;8.60;99.90;;;;;;5072997;28;20715;-48
2022/03/01 11:20:01;;;;;;;14.35;8.90;;;8.60;99.90;;;;;;5072725;28;20507;-48
2022/03/01 11:22:41;;;;;;;25.05;13.10;;;8.60;99.90;;;;;;5072664;28;20165;-48
2022/03/01 11:25:14;;;;;;;21.00;11.68;;;8.70;99.90;;;;;;5073155;28;20209;-48
2022/03/01 11:27:45;;;;;;;25.17;12.68;;;8.70;99.90;;;;;;5072851;28;20249;-48
2022/03/01 11:30:11;;;;;;;18.50;10.73;;;8.80;99.90;;;;;;5073113;28;20203;-48
2022/03/01 11:32:39;;;;;;;17.15;10.82;;;8.80;99.90;;;;;;5072855;28;20178;-48
2022/03/01 11:35:05;;;;;;;19.67;11.20;;;8.80;99.90;;;;;;5072476;28;20158;-49
2022/03/01 11:37:31;;;;;;;46.92;27.27;;;8.90;99.90;;;;;;5054616;28;20174;-47
2022/03/01 11:39:59;;;;;;;22.17;11.88;;;8.80;99.90;;;;;;5054525;28;20662;-47
2022/03/01 11:42:30;;;;;;;44.88;23.23;;;9.00;99.90;;;;;;5072727;28;20174;-48
2022/03/01 11:44:55;;;;;;;16.75;11.43;;;9.20;99.90;;;;;;5072189;28;20293;-48
2022/03/01 11:47:32;;;;;;;24.55;14.95;;;9.10;99.90;;;;;;5072478;28;20748;-47
2022/03/01 11:50:08;;;;;;;20.38;10.68;;;9.10;99.90;;;;;;5072280;28;20197;-46
2022/03/01 11:52:33;;;;;;;15.73;9.93;;;9.20;99.90;;;;;;5072291;28;20162;-48
2022/03/01 11:55:01;;;;;;;17.27;9.88;;;9.10;99.90;;;;;;5072245;28;20172;-48
2022/03/01 11:57:29;;;;;;;16.70;9.55;;;9.10;99.50;;;;;;5072455;28;20166;-47
2022/03/01 11:59:56;;;;;;;25.00;13.27;;;9.30;99.90;;;;;;5072213;28;20166;-48
2022/03/01 12:02:24;;;;;;;15.80;9.73;;;9.20;98.80;;;;;;5072082;28;20170;-47
2022/03/01 12:04:52;;;;;;;10.85;8.35;;;9.40;99.90;;;;;;5072253;28;20212;-47
2022/03/01 12:07:23;;;;;;;17.35;10.30;;;9.30;98.90;;;;;;5072023;28;20166;-47
2022/03/01 12:10:00;;;;;;;23.40;12.25;;;9.40;99.80;;;;;;5071799;28;20205;-47
2022/03/01 12:12:34;;;;;;;14.73;9.52;;;9.50;99.70;;;;;;5072221;28;20272;-46
2022/03/01 12:15:01;;;;;;;17.95;11.35;;;9.80;99.70;;;;;;5071874;28;20169;-47
2022/03/01 12:17:26;;;;;;;20.55;14.13;;;9.80;98.50;;;;;;5071826;28;20166;-47
2022/03/01 12:19:59;;;;;;;16.95;8.63;;;10.00;97.70;;;;;;5071919;28;20253;-46
2022/03/01 12:22:25;;;;;;;31.23;11.45;;;9.90;96.90;;;;;;5072024;28;20185;-47
2022/03/01 12:24:51;;;;;;;15.50;7.93;;;9.90;97.20;;;;;;5071774;28;20205;-47
2022/03/01 12:27:18;;;;;;;13.27;8.45;;;9.80;96.20;;;;;;5071991;28;20619;-46
2022/03/01 12:29:47;;;;;;;11.98;8.15;;;9.80;95.50;;;;;;5071913;28;20642;-47
2022/03/01 12:32:13;;;;;;;12.20;8.45;;;9.80;95.80;;;;;;5071784;28;20170;-47
2022/03/01 12:34:41;;;;;;;14.88;7.88;;;9.70;94.90;;;;;;5071966;28;20170;-47
2022/03/01 12:37:10;;;;;;;15.68;9.90;;;9.90;94.60;;;;;;5071953;28;20199;-46
2022/03/01 12:39:37;;;;;;;18.55;8.77;;;9.90;95.40;;;;;;5071938;28;20162;-47